This is the latest recevied weather packets stored in our database for station/object N1MCJ. If no packets are shown the sender has not sent any weather packets the latest 10 day(s).
| Time | Temp. | Humidity | Pressure | Rain* | Wind** | Luminosity | Snow |
|---|---|---|---|---|---|---|---|
| 1777866709 | 5.56° C | 62% | 1003.3 hPa | 0 mm | - | 0 W/m² | - |
| 1777865807 | 5.56° C | 63% | 1003.2 hPa | 0 mm | - | 0 W/m² | - |
| 1777864904 | 6.11° C | 63% | 1002.9 hPa | 0 mm | - | 0 W/m² | - |
| 1777864000 | 5.56° C | 66% | 1003.3 hPa | 0 mm | - | 0 W/m² | - |
| 1777863096 | 6.11° C | 62% | 1003.2 hPa | 0 mm | - | 0 W/m² | - |
| 1777862193 | 6.11° C | 63% | 1003.4 hPa | 0 mm | - | 0 W/m² | - |
| 1777861293 | 6.67° C | 58% | 1003.3 hPa | 0 mm | - | 0 W/m² | - |
| 1777860390 | 6.67° C | 59% | 1003.2 hPa | 0 mm | - | 0 W/m² | - |
| 1777859485 | 7.22° C | 60% | 1003.1 hPa | 0 mm | - | 0 W/m² | - |
| 1777858581 | 7.22° C | 60% | 1002.8 hPa | 0 mm | - | 0 W/m² | - |
| 1777857679 | 7.78° C | 59% | 1002.8 hPa | 0 mm | - | 0 W/m² | - |
| 1777856780 | 8.89° C | 54% | 1002.5 hPa | 0 mm | - | 0 W/m² | - |
| 1777855876 | 9.44° C | 52% | 1002.3 hPa | 0 mm | - | 0 W/m² | - |
| 1777854973 | 10° C | 50% | 1002.1 hPa | 0 mm | - | 0 W/m² | - |
| 1777854070 | 10° C | 47% | 1001.8 hPa | 0 mm | - | 0 W/m² | - |
| 1777853167 | 10.56° C | 49% | 1001.7 hPa | 0 mm | - | 0 W/m² | - |
| 1777852264 | 11.11° C | 47% | 1001.6 hPa | 0 mm | - | 0 W/m² | - |
| 1777851362 | 11.67° C | 40% | 1001.4 hPa | 0 mm | - | 3 W/m² | - |
| 1777850459 | 12.22° C | 36% | 1001.3 hPa | 0 mm | - | 11 W/m² | - |
| 1777849555 | 13.33° C | 32% | 1001.1 hPa | 0 mm | - | 19 W/m² | - |
| 1777848650 | 14.44° C | 31% | 1000.9 hPa | 0 mm | - | 32 W/m² | - |
| 1777847750 | 14.44° C | 31% | 1000.9 hPa | 0 mm | - | 38 W/m² | - |
| 1777846847 | 13.89° C | 31% | 1000.9 hPa | 0 mm | - | 44 W/m² | - |
| 1777845943 | 14.44° C | 32% | 1000.6 hPa | 0 mm | - | 74 W/m² | - |
| 1777845040 | 13.89° C | 32% | 1000.9 hPa | 0 mm | - | 260 W/m² | - |
* Rain latest hour (hover to see other rain measurements)
** Current wind speed in m/s (hover to see current wind gust speed)